Bville, Texas
Current Conditions -  °F | °C
As of 5:53 AM on Thursday 23 Oct 2014 (Local Time) from KBRO Reporting Station
Few Clouds Few Clouds  
Wind Chill: 68°   Ceiling: Unl
Heat Index: 68°   Visibility: 10mi
Dew Point: 66°   Wind: 3mph
Humidity: 93%   Direction: 330°NNW
Pressure: 30"   Gusts: NA
Location:  26.0002°N, 97.5729°W
Report Text: KBRO 231053Z 33003KT 10SM FEW090 20/19 A3000 RMK AO2 SLP159 T02000189
Loading
Personal Weather Stations






























Interactive Weather Map
Tropical Storm Tracking
New forecast layout! Learn more

10-Day Weather Forecast

Advertisements
Track Severe Weather on mobile